Time;durP1;ratioP1;P1;durP2;ratioP2;P2;SDS_P1;SDS_P2;PMS_P1;PMS_P2;Temp;Humidity;BMP_temperature;BMP_pressure;BME280_temperature;BME280_humidity;BME280_pressure;Samples;Min_cycle;Max_cycle;Signal;HPM_P1;HPM_P2
2022/05/23 00:01:47;;;;;;;3.20;0.80;;;15.40;99.90;;;;;;10253870;28;20053;-89
2022/05/23 00:06:51;;;;;;;2.22;0.68;;;15.40;99.90;;;;;;10262422;28;20074;-89
2022/05/23 00:11:53;;;;;;;2.30;0.90;;;15.40;99.90;;;;;;10252095;28;20837;-90
2022/05/23 00:16:56;;;;;;;4.53;1.20;;;15.40;99.90;;;;;;10266734;28;20126;-89
2022/05/23 00:21:58;;;;;;;4.70;0.93;;;15.30;99.90;;;;;;10268087;28;20082;-89
2022/05/23 00:27:00;;;;;;;1.45;1.10;;;15.20;99.90;;;;;;10271708;28;20042;-88
2022/05/23 00:37:23;;;;;;;4.20;1.00;;;15.20;99.90;;;;;;10265194;28;20526;-88
2022/05/23 00:47:51;;;;;;;4.25;0.82;;;15.10;99.90;;;;;;10279973;28;20121;-90
2022/05/23 00:52:56;;;;;;;2.95;0.90;;;15.00;99.90;;;;;;10260512;28;20026;-88
2022/05/23 00:58:05;;;;;;;4.50;1.13;;;15.00;99.90;;;;;;10274146;28;20079;-89
2022/05/23 01:03:11;;;;;;;1.27;0.73;;;15.00;99.90;;;;;;10248596;28;20061;-88
2022/05/23 01:08:16;;;;;;;1.30;0.98;;;15.00;99.90;;;;;;10246710;28;20081;-88
2022/05/23 01:13:17;;;;;;;2.20;0.88;;;15.00;99.90;;;;;;10240590;28;20047;-89
2022/05/23 01:18:19;;;;;;;6.57;1.35;;;14.90;99.90;;;;;;10271744;28;20062;-88
2022/05/23 01:23:41;;;;;;;2.60;1.00;;;15.00;99.90;;;;;;10266807;28;20618;-89
2022/05/23 01:28:44;;;;;;;2.63;1.00;;;15.00;99.90;;;;;;10251878;28;20110;-88
2022/05/23 01:33:45;;;;;;;2.00;0.98;;;15.10;99.90;;;;;;10268844;28;20095;-89
2022/05/23 01:38:47;;;;;;;2.33;0.80;;;15.10;99.90;;;;;;10242319;28;20055;-88
2022/05/23 01:43:49;;;;;;;3.42;1.02;;;15.20;99.90;;;;;;10254108;28;20073;-90
2022/05/23 01:48:51;;;;;;;2.55;0.80;;;15.30;99.90;;;;;;10239855;28;20078;-89
2022/05/23 01:53:53;;;;;;;2.88;0.95;;;15.30;99.90;;;;;;10263458;28;20129;-88
2022/05/23 02:04:15;;;;;;;2.72;0.77;;;15.50;99.90;;;;;;10245319;28;20082;-89
2022/05/23 02:09:26;;;;;;;3.22;0.90;;;15.50;99.90;;;;;;10236752;28;20055;-89
2022/05/23 02:14:28;;;;;;;5.97;0.95;;;15.50;99.90;;;;;;10251912;28;20469;-89
2022/05/23 02:19:32;;;;;;;2.63;1.10;;;15.50;99.90;;;;;;10259634;28;20147;-89
2022/05/23 02:24:34;;;;;;;5.53;1.00;;;15.40;99.90;;;;;;10241214;28;20381;-89
2022/05/23 02:29:37;;;;;;;6.13;0.90;;;15.40;99.90;;;;;;10250985;28;20069;-89
2022/05/23 02:34:39;;;;;;;4.03;1.00;;;15.30;99.90;;;;;;10234520;28;20070;-89
2022/05/23 02:39:41;;;;;;;3.45;1.83;;;15.30;99.90;;;;;;10271248;28;20097;-88
2022/05/23 02:44:48;;;;;;;1.48;0.95;;;15.20;99.90;;;;;;10239937;28;20118;-88
2022/05/23 02:49:50;;;;;;;5.35;1.33;;;15.10;99.90;;;;;;10233045;28;20044;-89
2022/05/23 02:54:53;;;;;;;2.15;1.05;;;15.10;99.90;;;;;;10256905;28;20085;-89
2022/05/23 02:59:55;;;;;;;6.72;0.98;;;15.10;99.90;;;;;;10246968;28;20086;-89
2022/05/23 03:04:57;;;;;;;2.10;1.00;;;15.00;99.90;;;;;;10234472;28;22639;-89
2022/05/23 03:09:59;;;;;;;3.10;1.05;;;15.00;99.90;;;;;;10248696;28;20045;-89
2022/05/23 03:15:04;;;;;;;3.22;1.23;;;15.00;99.90;;;;;;10274206;28;20489;-89
2022/05/23 03:20:07;;;;;;;1.73;0.88;;;15.10;99.90;;;;;;10258120;28;20579;-89
2022/05/23 03:30:31;;;;;;;6.28;1.05;;;15.10;99.90;;;;;;10264772;28;20117;-89
2022/05/23 03:35:34;;;;;;;2.45;0.90;;;15.10;99.90;;;;;;10254597;28;20497;-89
2022/05/23 03:40:38;;;;;;;3.25;1.25;;;15.20;99.90;;;;;;10255869;28;20501;-89
2022/05/23 03:45:41;;;;;;;2.13;0.98;;;15.20;99.90;;;;;;10233037;28;20066;-89
2022/05/23 03:50:43;;;;;;;1.25;0.80;;;15.20;99.90;;;;;;10270809;28;20062;-89
2022/05/23 03:55:44;;;;;;;2.95;1.13;;;15.30;99.90;;;;;;10283111;28;20437;-89
2022/05/23 04:00:49;;;;;;;4.53;1.38;;;15.30;99.90;;;;;;10257997;28;20051;-90
2022/05/23 04:05:51;;;;;;;2.78;1.27;;;15.40;99.90;;;;;;10258023;28;20057;-90
2022/05/23 04:10:53;;;;;;;3.85;0.90;;;15.30;99.90;;;;;;10255310;28;20050;-89
2022/05/23 04:15:55;;;;;;;3.53;0.90;;;15.40;99.90;;;;;;10270081;28;20054;-90
2022/05/23 04:20:58;;;;;;;2.58;1.08;;;15.30;99.90;;;;;;10249458;28;20047;-90
2022/05/23 04:26:06;;;;;;;3.40;1.35;;;15.40;99.90;;;;;;10279604;28;21015;-91
2022/05/23 04:31:10;;;;;;;1.77;1.20;;;15.40;99.90;;;;;;10233302;28;20030;-91
2022/05/23 04:36:12;;;;;;;2.65;0.90;;;15.50;99.90;;;;;;10240715;28;20059;-91
2022/05/23 04:41:17;;;;;;;3.58;1.23;;;15.50;99.90;;;;;;10261475;28;20049;-91
2022/05/23 04:46:19;;;;;;;1.58;1.10;;;15.60;99.90;;;;;;10252020;28;20055;-91
2022/05/23 04:51:21;;;;;;;4.47;1.80;;;15.60;99.90;;;;;;10242578;28;20046;-91
2022/05/23 04:56:27;;;;;;;3.88;1.58;;;15.40;99.90;;;;;;10239381;28;20102;-91
2022/05/23 05:01:29;;;;;;;6.75;1.23;;;15.50;99.90;;;;;;10271206;28;20074;-90
2022/05/23 05:06:38;;;;;;;2.75;1.65;;;15.60;99.90;;;;;;10272683;28;20046;-91
2022/05/23 05:11:40;;;;;;;3.58;1.25;;;15.70;99.90;;;;;;10270921;28;20058;-90
2022/05/23 05:16:43;;;;;;;1.90;0.93;;;15.70;99.90;;;;;;10192631;28;20545;-91
2022/05/23 05:21:49;;;;;;;6.22;1.88;;;15.80;99.90;;;;;;10238619;28;20120;-91
2022/05/23 05:26:52;;;;;;;6.75;1.70;;;16.00;99.90;;;;;;10240821;28;20047;-92
2022/05/23 05:32:36;;;;;;;3.95;1.35;;;16.10;99.90;;;;;;10049827;28;20051;-91
2022/05/23 05:37:45;;;;;;;4.90;1.60;;;16.20;99.90;;;;;;10198286;28;20055;-91
2022/05/23 05:43:00;;;;;;;2.53;1.27;;;16.20;99.90;;;;;;10243871;28;20130;-91
2022/05/23 05:48:03;;;;;;;10.05;1.00;;;16.30;99.90;;;;;;10252375;28;20090;-91
2022/05/23 05:53:28;;;;;;;9.25;2.25;;;16.40;99.90;;;;;;10262540;28;20059;-91
2022/05/23 05:58:30;;;;;;;3.72;1.33;;;16.50;99.90;;;;;;10241704;28;20129;-89
2022/05/23 06:03:35;;;;;;;3.97;1.50;;;16.50;99.90;;;;;;10239781;28;20133;-89
2022/05/23 06:14:00;;;;;;;2.53;1.58;;;16.50;99.90;;;;;;10266712;28;20042;-90
2022/05/23 06:19:02;;;;;;;4.88;1.90;;;16.50;99.90;;;;;;10273811;28;20055;-90
2022/05/23 06:24:06;;;;;;;2.90;1.65;;;16.40;99.90;;;;;;10254488;28;20089;-91
2022/05/23 06:29:08;;;;;;;4.60;1.55;;;16.40;99.90;;;;;;10221118;28;20062;-90
2022/05/23 06:34:10;;;;;;;5.47;1.52;;;16.30;99.90;;;;;;10251464;28;20051;-90
2022/05/23 06:39:12;;;;;;;4.30;1.60;;;16.20;99.90;;;;;;10271581;28;20079;-90
2022/05/23 06:44:15;;;;;;;2.63;1.60;;;16.30;99.90;;;;;;10244384;28;20055;-91
2022/05/23 06:49:23;;;;;;;2.22;1.40;;;16.30;99.90;;;;;;10264626;28;20051;-91
2022/05/23 06:54:26;;;;;;;5.88;1.58;;;16.50;99.90;;;;;;10261635;28;20047;-91
2022/05/23 06:59:28;;;;;;;2.13;1.55;;;16.60;99.90;;;;;;10249883;28;20097;-90
2022/05/23 07:12:19;;;;;;;3.35;1.63;;;16.80;99.90;;;;;;10244433;28;20074;-90
2022/05/23 07:15:13;;;;;;;2.10;1.30;;;17.10;99.90;;;;;;10267941;28;20089;-90
2022/05/23 07:20:15;;;;;;;3.95;1.35;;;17.40;99.90;;;;;;10243611;28;20059;-90
2022/05/23 07:25:17;;;;;;;3.78;1.10;;;17.20;99.90;;;;;;10272294;28;20051;-90
2022/05/23 07:30:21;;;;;;;5.15;1.15;;;17.50;99.90;;;;;;10267120;28;20074;-90
2022/05/23 07:35:24;;;;;;;1.58;1.15;;;17.70;99.90;;;;;;10247674;28;20107;-90
2022/05/23 07:40:26;;;;;;;6.35;2.15;;;18.00;99.90;;;;;;10261904;28;20070;-90
2022/05/23 07:45:28;;;;;;;2.15;1.23;;;18.20;99.90;;;;;;10250244;28;20047;-90
2022/05/23 07:50:30;;;;;;;4.28;1.60;;;18.30;99.90;;;;;;10259877;28;20074;-90
2022/05/23 08:00:53;;;;;;;4.03;1.38;;;18.60;97.90;;;;;;10267450;28;20057;-90
2022/05/23 08:05:55;;;;;;;3.63;1.02;;;18.80;96.80;;;;;;10239677;28;20483;-89
2022/05/23 08:10:58;;;;;;;4.78;1.25;;;19.10;97.00;;;;;;10253555;28;20022;-90
2022/05/23 08:16:00;;;;;;;1.80;0.90;;;19.20;93.80;;;;;;10232994;28;20054;-90
2022/05/23 08:21:02;;;;;;;5.68;1.13;;;19.20;94.20;;;;;;10259945;28;20047;-91
2022/05/23 08:26:04;;;;;;;4.53;1.10;;;19.70;94.70;;;;;;10264424;28;20057;-88
2022/05/23 08:31:06;;;;;;;3.17;1.35;;;19.90;92.80;;;;;;10249915;28;20051;-89
2022/05/23 08:36:10;;;;;;;3.03;1.48;;;20.00;91.90;;;;;;10244306;28;20067;-90
2022/05/23 08:41:23;;;;;;;1.77;1.10;;;20.00;90.30;;;;;;10261073;28;20042;-89
2022/05/23 08:46:40;;;;;;;5.20;1.08;;;20.30;91.20;;;;;;10267700;28;20051;-90
2022/05/23 08:52:06;;;;;;;4.63;1.00;;;20.50;90.80;;;;;;10237206;28;20051;-90
2022/05/23 08:57:22;;;;;;;3.47;0.88;;;20.70;90.60;;;;;;10261303;28;20058;-89
2022/05/23 09:02:55;;;;;;;2.73;1.13;;;20.70;90.50;;;;;;10275947;28;20043;-91
2022/05/23 09:08:01;;;;;;;2.20;0.95;;;20.90;90.20;;;;;;10256740;28;20153;-90
2022/05/23 09:13:09;;;;;;;3.95;1.13;;;20.90;89.30;;;;;;10239102;28;20051;-90
2022/05/23 09:18:21;;;;;;;3.47;1.20;;;21.10;88.40;;;;;;10272390;28;20031;-89
2022/05/23 09:23:38;;;;;;;4.63;1.60;;;21.20;89.60;;;;;;10261784;28;20055;-89
2022/05/23 09:28:41;;;;;;;3.55;0.88;;;21.20;85.40;;;;;;10257140;28;20154;-89
2022/05/23 09:33:47;;;;;;;2.38;0.98;;;21.20;86.30;;;;;;10247121;28;20077;-90
2022/05/23 09:39:01;;;;;;;3.20;1.13;;;21.40;87.50;;;;;;10233426;28;20118;-90
2022/05/23 09:49:31;;;;;;;4.50;0.90;;;21.50;89.00;;;;;;10226616;28;20055;-90
2022/05/23 09:54:45;;;;;;;3.05;1.00;;;21.40;87.30;;;;;;10248931;28;20063;-90
2022/05/23 10:00:00;;;;;;;3.05;1.20;;;21.60;87.90;;;;;;10241048;28;20075;-90
2022/05/23 10:05:04;;;;;;;2.45;0.90;;;21.30;88.20;;;;;;10234069;28;20055;-90
2022/05/23 10:10:19;;;;;;;2.60;0.80;;;21.40;89.50;;;;;;10222593;28;20043;-90
2022/05/23 10:15:25;;;;;;;4.07;0.88;;;21.60;90.30;;;;;;10229278;28;20060;-90
2022/05/23 10:20:37;;;;;;;3.03;0.93;;;21.90;89.30;;;;;;10243523;28;20122;-90
2022/05/23 10:26:04;;;;;;;2.28;0.85;;;22.00;84.70;;;;;;10249955;28;20047;-90
2022/05/23 10:31:21;;;;;;;2.13;0.80;;;22.60;85.20;;;;;;10275952;28;20047;-89
2022/05/23 10:36:26;;;;;;;3.63;0.80;;;22.70;84.80;;;;;;10261805;28;20047;-91
2022/05/23 10:47:34;;;;;;;6.43;0.93;;;23.20;79.50;;;;;;10273922;28;20140;-89
2022/05/23 10:52:44;;;;;;;3.40;0.80;;;23.40;78.10;;;;;;10270636;28;20065;-89
2022/05/23 10:58:08;;;;;;;2.08;0.63;;;23.90;77.50;;;;;;10248330;28;20050;-89
2022/05/23 11:03:39;;;;;;;2.03;0.60;;;24.30;75.40;;;;;;10247844;28;20053;-89
2022/05/23 11:09:01;;;;;;;3.10;0.60;;;24.70;74.40;;;;;;10274247;28;20043;-89
2022/05/23 11:14:18;;;;;;;3.00;0.60;;;24.50;74.10;;;;;;10270585;28;20574;-89
2022/05/23 11:19:53;;;;;;;2.15;0.50;;;24.90;75.60;;;;;;10255048;28;20046;-89
2022/05/23 11:25:04;;;;;;;2.00;0.60;;;25.10;73.00;;;;;;10235702;28;20165;-89
2022/05/23 11:35:31;;;;;;;4.07;0.70;;;25.60;73.60;;;;;;10228305;28;20047;-89
2022/05/23 11:40:49;;;;;;;1.67;0.50;;;25.90;73.80;;;;;;10228025;28;20489;-89
2022/05/23 11:45:57;;;;;;;3.90;0.57;;;26.50;70.70;;;;;;10233301;28;20035;-89
2022/05/23 11:51:11;;;;;;;2.67;0.43;;;26.50;68.30;;;;;;10254331;28;20059;-90
2022/05/23 11:56:46;;;;;;;1.00;0.40;;;26.00;68.20;;;;;;10225717;28;20500;-90
2022/05/23 12:02:08;;;;;;;6.13;0.80;;;26.30;70.20;;;;;;10218044;28;20138;-89
2022/05/23 12:07:39;;;;;;;1.45;0.50;;;26.30;70.80;;;;;;10234039;28;20059;-89
2022/05/23 12:12:48;;;;;;;2.70;0.50;;;26.20;72.00;;;;;;10233918;28;20202;-89
2022/05/23 12:18:04;;;;;;;1.27;0.70;;;26.10;72.20;;;;;;10230060;28;20050;-91
2022/05/23 12:23:13;;;;;;;1.05;0.43;;;26.10;70.90;;;;;;10218536;28;20056;-91
2022/05/23 12:28:20;;;;;;;1.52;0.50;;;25.90;72.40;;;;;;10239504;28;20153;-90
2022/05/23 12:39:27;;;;;;;2.05;0.63;;;25.60;73.00;;;;;;10214873;28;20134;-90
2022/05/23 12:44:46;;;;;;;2.53;1.52;;;25.60;73.90;;;;;;10234944;28;20058;-89
2022/05/23 12:50:02;;;;;;;3.83;0.70;;;25.30;74.20;;;;;;10233645;28;20071;-89
2022/05/23 12:55:10;;;;;;;1.58;0.52;;;25.40;74.50;;;;;;10235533;28;20039;-88
2022/05/23 13:00:33;;;;;;;2.47;0.93;;;25.20;74.60;;;;;;10235883;28;20092;-89
2022/05/23 13:05:39;;;;;;;5.85;0.73;;;25.00;73.90;;;;;;10222636;28;20051;-90
2022/05/23 13:10:43;;;;;;;8.15;0.80;;;24.80;74.70;;;;;;10241213;28;20056;-89
2022/05/23 13:15:46;;;;;;;2.10;0.60;;;24.70;76.20;;;;;;10212058;28;20043;-89
2022/05/23 13:26:12;;;;;;;2.05;1.50;;;24.40;79.70;;;;;;10240799;28;20150;-90
2022/05/23 13:31:34;;;;;;;4.72;1.38;;;24.30;81.40;;;;;;10268152;28;20521;-89
2022/05/23 13:36:46;;;;;;;5.47;1.15;;;24.40;81.90;;;;;;10256180;28;20413;-89
2022/05/23 13:41:48;;;;;;;4.55;0.85;;;24.20;82.60;;;;;;10241211;28;20050;-89
2022/05/23 13:46:58;;;;;;;2.05;0.65;;;24.20;83.50;;;;;;10232890;28;20058;-89
2022/05/23 13:52:06;;;;;;;4.25;0.93;;;24.20;83.80;;;;;;10253158;28;20083;-89
2022/05/23 13:57:15;;;;;;;2.40;1.42;;;24.50;85.20;;;;;;10271003;28;20043;-90
2022/05/23 14:02:22;;;;;;;3.72;1.25;;;24.70;83.70;;;;;;10257741;28;20047;-89
2022/05/23 14:07:29;;;;;;;3.87;0.70;;;25.00;84.10;;;;;;10254548;28;20513;-90
2022/05/23 14:12:39;;;;;;;11.10;1.00;;;25.00;83.90;;;;;;10265063;28;20286;-88
2022/05/23 14:17:49;;;;;;;1.75;1.15;;;25.20;82.10;;;;;;10261598;28;20464;-89
2022/05/23 14:23:10;;;;;;;3.20;0.80;;;25.30;81.70;;;;;;10275730;28;20128;-89
2022/05/23 14:28:23;;;;;;;5.15;1.02;;;25.00;81.50;;;;;;10245077;28;20458;-88
2022/05/23 14:33:31;;;;;;;5.55;1.00;;;24.80;85.10;;;;;;10260173;28;20074;-88
2022/05/23 14:38:50;;;;;;;2.42;0.73;;;25.30;84.70;;;;;;10269200;28;20047;-88
2022/05/23 14:44:05;;;;;;;3.63;1.33;;;25.50;83.50;;;;;;10260698;28;20537;-89
2022/05/23 14:49:16;;;;;;;1.83;0.98;;;25.50;82.60;;;;;;10252994;28;20543;-88
2022/05/23 15:05:13;;;;;;;2.47;0.90;;;26.50;81.40;;;;;;10253306;28;20581;-90
2022/05/23 15:10:15;;;;;;;3.28;0.98;;;27.10;80.60;;;;;;10277602;28;20046;-88
2022/05/23 15:15:20;;;;;;;1.43;0.90;;;28.00;77.20;;;;;;10264229;28;20059;-89
2022/05/23 15:20:23;;;;;;;2.83;0.90;;;28.00;75.40;;;;;;10257005;28;20062;-87
2022/05/23 15:25:28;;;;;;;4.93;0.80;;;28.50;72.40;;;;;;10260625;28;20085;-87
2022/05/23 15:30:31;;;;;;;3.22;0.80;;;27.80;71.20;;;;;;10256375;28;20058;-87
2022/05/23 15:35:33;;;;;;;2.55;0.70;;;28.00;72.70;;;;;;10248922;28;20053;-89
2022/05/23 15:40:36;;;;;;;3.78;0.80;;;27.30;69.10;;;;;;10271814;28;20039;-87
2022/05/23 15:45:44;;;;;;;4.20;1.13;;;26.90;68.00;;;;;;10270389;28;20051;-88
2022/05/23 15:50:46;;;;;;;3.15;0.57;;;26.90;67.50;;;;;;10268617;28;20054;-88
2022/05/23 15:55:52;;;;;;;4.82;0.88;;;27.00;67.00;;;;;;10250080;28;20053;-88
2022/05/23 16:00:54;;;;;;;3.53;0.70;;;26.80;67.10;;;;;;10266386;28;20075;-88
2022/05/23 16:05:56;;;;;;;3.83;0.82;;;26.90;67.50;;;;;;10262865;28;20058;-87
2022/05/23 16:11:14;;;;;;;6.00;0.90;;;26.90;66.10;;;;;;10271007;28;20045;-87
2022/05/23 16:16:19;;;;;;;3.92;0.82;;;26.20;68.10;;;;;;10266369;28;20449;-87
2022/05/23 16:21:29;;;;;;;3.50;0.80;;;25.90;69.60;;;;;;10273238;28;20409;-87
2022/05/23 16:26:31;;;;;;;4.22;0.70;;;26.50;70.00;;;;;;10255664;28;20043;-87
2022/05/23 16:31:33;;;;;;;4.93;1.02;;;26.80;71.80;;;;;;10265381;28;20054;-87
2022/05/23 16:36:35;;;;;;;3.25;0.70;;;26.90;69.90;;;;;;10275597;28;20043;-87
2022/05/23 16:41:39;;;;;;;3.20;0.50;;;27.10;69.60;;;;;;10254329;28;20457;-88
2022/05/23 16:46:42;;;;;;;2.63;0.90;;;26.40;69.70;;;;;;10266343;28;20131;-89
2022/05/23 16:51:44;;;;;;;4.53;1.17;;;26.20;71.90;;;;;;10258917;28;20047;-87
2022/05/23 16:56:46;;;;;;;3.28;0.77;;;26.00;72.80;;;;;;10258152;28;20089;-89
2022/05/23 17:01:48;;;;;;;4.18;0.75;;;25.70;74.50;;;;;;10269709;28;20498;-87
2022/05/23 17:06:49;;;;;;;6.85;0.70;;;25.40;76.10;;;;;;10262172;28;20105;-88
2022/05/23 17:11:52;;;;;;;4.10;0.68;;;25.30;78.30;;;;;;10270687;28;20058;-88
2022/05/23 17:16:57;;;;;;;3.60;0.80;;;25.00;79.40;;;;;;10266383;28;20512;-90
2022/05/23 17:21:59;;;;;;;1.88;0.63;;;24.70;81.80;;;;;;10256846;28;20126;-88
2022/05/23 17:27:01;;;;;;;5.32;1.42;;;24.50;83.30;;;;;;10270757;28;20055;-88
2022/05/23 17:32:04;;;;;;;4.93;1.35;;;24.30;85.50;;;;;;10256962;28;20043;-88
2022/05/23 17:37:06;;;;;;;6.30;1.42;;;24.10;88.10;;;;;;10251868;28;20058;-88
2022/05/23 17:42:11;;;;;;;3.70;0.90;;;24.00;90.40;;;;;;10260203;28;20050;-88
2022/05/23 17:47:14;;;;;;;7.25;1.05;;;23.80;90.60;;;;;;10239714;28;20512;-88
2022/05/23 17:52:16;;;;;;;1.90;0.55;;;23.60;86.20;;;;;;10268523;28;20051;-88
2022/05/23 17:57:19;;;;;;;2.08;0.68;;;23.70;82.50;;;;;;10269245;28;20046;-88
2022/05/23 18:02:21;;;;;;;3.50;0.70;;;23.40;90.10;;;;;;10253376;28;20382;-88
2022/05/23 18:07:23;;;;;;;3.55;0.50;;;23.20;90.70;;;;;;10243865;28;20473;-87
2022/05/23 18:12:26;;;;;;;3.88;0.75;;;23.00;90.20;;;;;;10255769;28;20047;-88
2022/05/23 18:23:09;;;;;;;2.78;0.47;;;21.80;91.40;;;;;;10248348;28;20134;-89
2022/05/23 18:28:12;;;;;;;1.80;0.30;;;21.10;93.50;;;;;;10260071;28;20051;-89
2022/05/23 18:33:18;;;;;;;;;;;20.80;96.80;;;;;;10276836;28;20113;-90
2022/05/23 18:38:20;;;;;;;2.15;0.30;;;20.30;99.90;;;;;;10238997;28;19932;-89
2022/05/23 18:43:22;;;;;;;3.20;0.40;;;19.60;99.90;;;;;;10243466;28;20089;-89
2022/05/23 18:53:45;;;;;;;1.80;0.40;;;19.10;99.90;;;;;;10265565;28;20101;-90
2022/05/23 18:58:52;;;;;;;1.42;0.40;;;18.80;99.90;;;;;;10240205;28;20073;-89
2022/05/23 19:03:57;;;;;;;1.60;0.30;;;18.60;99.90;;;;;;10236720;28;20266;-90
2022/05/23 19:09:20;;;;;;;2.17;0.55;;;18.50;99.90;;;;;;10255955;28;20078;-90
2022/05/23 19:14:23;;;;;;;2.30;0.30;;;18.50;99.90;;;;;;10231760;28;20071;-94
2022/05/23 19:19:32;;;;;;;2.08;0.50;;;18.10;99.90;;;;;;10194677;28;20038;-93
2022/05/23 19:25:15;;;;;;;2.28;0.40;;;17.90;99.90;;;;;;10103626;28;20052;-95
2022/05/23 19:32:02;;;;;;;1.40;0.38;;;17.60;99.90;;;;;;9865179;29;20053;-94
2022/05/23 19:37:43;;;;;;;2.25;0.98;;;17.50;99.90;;;;;;9804024;23;20046;-64
2022/05/23 19:42:44;;;;;;;3.03;0.40;;;17.40;99.90;;;;;;10347946;28;20038;-64
2022/05/23 19:47:46;;;;;;;1.13;0.30;;;17.40;99.90;;;;;;10349442;28;20049;-61
2022/05/23 19:52:48;;;;;;;3.63;0.50;;;17.30;99.90;;;;;;10352179;28;20058;-61
2022/05/23 19:57:51;;;;;;;2.72;0.40;;;17.30;99.90;;;;;;10352355;28;20050;-61
2022/05/23 20:08:15;;;;;;;2.25;0.50;;;17.40;99.90;;;;;;10353575;28;20056;-63
2022/05/23 20:13:17;;;;;;;3.47;0.73;;;17.50;99.90;;;;;;10353078;28;20042;-62
2022/05/23 20:18:21;;;;;;;2.55;0.60;;;17.40;99.90;;;;;;10353346;28;20188;-62
2022/05/23 20:23:26;;;;;;;1.45;0.52;;;17.50;99.90;;;;;;10353404;28;20053;-62
2022/05/23 20:28:48;;;;;;;2.13;0.50;;;17.40;99.90;;;;;;10350424;28;20104;-62
2022/05/23 20:33:51;;;;;;;1.10;0.40;;;17.40;99.90;;;;;;10352121;28;20057;-62
2022/05/23 20:38:53;;;;;;;2.53;0.52;;;17.50;99.90;;;;;;10353236;28;20124;-62
2022/05/23 20:43:54;;;;;;;1.67;0.50;;;17.40;99.90;;;;;;10352555;28;20073;-62
2022/05/23 20:48:57;;;;;;;0.80;0.40;;;17.40;99.90;;;;;;10350789;28;20074;-62
2022/05/23 20:53:59;;;;;;;2.30;0.68;;;17.40;99.90;;;;;;10352353;28;20499;-63
2022/05/23 20:59:00;;;;;;;2.10;0.50;;;17.50;99.90;;;;;;10350948;28;24116;-62
2022/05/23 21:04:03;;;;;;;1.33;0.50;;;17.50;99.90;;;;;;10352628;28;20127;-62
2022/05/23 21:09:04;;;;;;;1.63;0.60;;;17.50;99.90;;;;;;10351700;28;20045;-62
2022/05/23 21:14:25;;;;;;;1.85;0.60;;;17.50;99.90;;;;;;10353357;28;20054;-62
2022/05/23 21:19:27;;;;;;;1.40;0.50;;;17.40;99.90;;;;;;10350732;28;20057;-62
2022/05/23 21:24:29;;;;;;;2.45;0.50;;;17.40;99.90;;;;;;10351423;28;20058;-62
2022/05/23 21:29:32;;;;;;;0.63;0.40;;;17.50;99.90;;;;;;10351037;28;20049;-62
2022/05/23 21:34:34;;;;;;;3.08;0.60;;;17.50;99.90;;;;;;10351851;28;20104;-62
2022/05/23 21:39:37;;;;;;;2.00;0.60;;;17.50;99.90;;;;;;10346022;28;20050;-61
2022/05/23 21:50:00;;;;;;;3.03;0.70;;;17.50;99.90;;;;;;10347884;28;20104;-62
2022/05/23 21:55:03;;;;;;;0.90;0.50;;;17.50;99.90;;;;;;10350902;28;20084;-61
2022/05/23 22:00:05;;;;;;;2.45;0.57;;;17.40;99.90;;;;;;10349586;28;20049;-61
2022/05/23 22:05:07;;;;;;;1.40;0.60;;;17.50;99.90;;;;;;10345622;28;20049;-62
2022/05/23 22:10:09;;;;;;;2.03;0.75;;;17.50;99.90;;;;;;10347709;28;20054;-62
2022/05/23 22:15:12;;;;;;;1.00;0.90;;;17.50;99.90;;;;;;10346366;28;20042;-61
2022/05/23 22:20:14;;;;;;;3.80;0.80;;;17.50;99.90;;;;;;10346544;28;20045;-61
2022/05/23 22:25:16;;;;;;;2.90;0.90;;;17.50;99.90;;;;;;10348333;28;20459;-61
2022/05/23 22:30:17;;;;;;;2.22;0.70;;;17.50;99.90;;;;;;10347957;28;20052;-61
2022/05/23 22:35:25;;;;;;;2.97;0.80;;;17.50;99.90;;;;;;10347083;28;20049;-61
2022/05/23 22:40:27;;;;;;;6.00;1.20;;;17.50;99.90;;;;;;10346984;28;20044;-61
2022/05/23 22:45:29;;;;;;;3.35;1.10;;;17.50;99.90;;;;;;10348098;28;20054;-61
2022/05/23 22:50:30;;;;;;;3.13;1.30;;;17.40;99.90;;;;;;10343325;28;20050;-61
2022/05/23 22:55:32;;;;;;;2.50;1.50;;;17.40;99.90;;;;;;10345561;28;20081;-60
2022/05/23 23:00:35;;;;;;;1.92;1.55;;;17.20;99.90;;;;;;10348118;28;20046;-60
2022/05/23 23:05:37;;;;;;;6.38;1.58;;;17.10;99.90;;;;;;10347695;28;20050;-60
2022/05/23 23:10:39;;;;;;;3.08;1.88;;;17.00;99.90;;;;;;10347313;28;20065;-60
2022/05/23 23:15:40;;;;;;;6.05;1.33;;;16.90;99.90;;;;;;10348048;28;20042;-60
2022/05/23 23:20:42;;;;;;;2.55;1.70;;;16.80;99.90;;;;;;10345776;28;20050;-60
2022/05/23 23:25:44;;;;;;;3.63;1.85;;;16.70;99.90;;;;;;10353248;28;20042;-60
2022/05/23 23:30:46;;;;;;;3.20;1.83;;;16.70;99.90;;;;;;10353913;28;20057;-60
2022/05/23 23:41:08;;;;;;;3.70;1.40;;;16.60;99.90;;;;;;10353715;28;20658;-59
2022/05/23 23:46:11;;;;;;;3.22;1.50;;;16.60;99.90;;;;;;10354889;28;20107;-60
2022/05/23 23:51:13;;;;;;;3.25;1.88;;;16.50;99.90;;;;;;10352466;28;20054;-60
2022/05/23 23:56:15;;;;;;;3.88;1.85;;;16.40;99.90;;;;;;10353335;28;20119;-60
